Cestohowa, Texas
Current Conditions -  °F | °C
As of 11:55 PM on Wednesday 22 Oct 2014 (Local Time) from KPEZ Reporting Station
Scattered Clouds Scattered Clouds  
Wind Chill: 71°   Ceiling: Unl
Heat Index: 71°   Visibility: 10mi
Dew Point: 60°   Wind: 5mph
Humidity: 69%   Direction: 110°ESE
Pressure: 30.08"   Gusts: NA
Location:  28.933°N, 98.0642°W
Report Text: KPEZ 230455Z AUTO 11004KT 10SM SCT120 22/16 A3008 RMK AO2 T02180158
Loading
Personal Weather Stations






























Interactive Weather Map
Tropical Storm Tracking
New forecast layout! Learn more

10-Day Weather Forecast

Advertisements
Track Severe Weather on mobile